Time;durP1;ratioP1;P1;durP2;ratioP2;P2;SDS_P1;SDS_P2;PMS_P1;PMS_P2;Temp;Humidity;BMP_temperature;BMP_pressure;BME280_temperature;BME280_humidity;BME280_pressure;Samples;Min_cycle;Max_cycle;Signal;HPM_P1;HPM_P2
2024/01/30 00:02:15;;;;;;;12.68;8.07;;;;;;;0.46;67.85;100858.66;6274980;22;20007;-57
2024/01/30 00:04:40;;;;;;;12.73;8.23;;;;;;;0.74;67.70;100918.69;6275829;22;20305;-59
2024/01/30 00:07:06;;;;;;;11.48;7.72;;;;;;;0.70;67.71;100925.81;6276392;22;20038;-58
2024/01/30 00:09:31;;;;;;;11.90;8.13;;;;;;;0.69;67.96;100924.91;6276198;22;20007;-58
2024/01/30 00:11:57;;;;;;;10.68;6.75;;;;;;;0.66;67.89;100910.97;6275462;22;20037;-57
2024/01/30 00:14:23;;;;;;;9.52;7.13;;;;;;;0.39;68.03;100869.34;6275676;22;20297;-58
2024/01/30 00:16:48;;;;;;;10.93;7.45;;;;;;;0.62;68.05;100912.78;6276278;22;20373;-54
2024/01/30 00:19:14;;;;;;;15.48;7.65;;;;;;;0.62;67.78;100898.75;6275905;22;20360;-54
2024/01/30 00:21:39;;;;;;;11.25;7.47;;;;;;;0.72;68.03;100916.09;6276119;22;20004;-55
2024/01/30 00:24:05;;;;;;;10.52;7.07;;;;;;;0.73;68.11;100909.91;6275981;22;20086;-56
2024/01/30 00:26:31;;;;;;;11.50;7.57;;;;;;;0.68;68.07;100898.59;6276254;22;20397;-58
2024/01/30 00:28:56;;;;;;;10.68;7.32;;;;;;;0.74;67.97;100910.78;6274928;22;20004;-61
2024/01/30 00:31:22;;;;;;;11.60;7.53;;;;;;;0.76;68.19;100898.44;6274790;22;20012;-60
2024/01/30 00:33:47;;;;;;;12.35;7.28;;;;;;;0.78;67.71;100894.00;6276052;22;20015;-61
2024/01/30 00:36:13;;;;;;;10.23;7.00;;;;;;;0.82;67.66;100906.19;6275918;22;20078;-55
2024/01/30 00:38:38;;;;;;;10.73;6.82;;;;;;;0.82;68.07;100911.47;6275862;22;20077;-59
2024/01/30 00:41:04;;;;;;;9.77;7.15;;;;;;;0.83;67.99;100910.56;6275786;22;20523;-64
2024/01/30 00:43:31;;;;;;;10.57;7.22;;;;;;;0.88;67.86;100903.41;6277222;22;20396;-58
2024/01/30 00:45:57;;;;;;;11.27;7.60;;;;;;;0.89;67.28;100913.06;6277637;22;20012;-60
2024/01/30 00:48:23;;;;;;;11.27;7.38;;;;;;;0.83;67.53;100903.50;6277536;22;20050;-58
2024/01/30 00:50:49;;;;;;;10.90;7.20;;;;;;;0.80;67.41;100905.38;6277621;22;20000;-57
2024/01/30 00:53:15;;;;;;;10.70;7.55;;;;;;;0.79;67.81;100893.94;6277546;22;20004;-58
2024/01/30 00:55:40;;;;;;;10.68;7.18;;;;;;;0.82;67.93;100907.06;6277837;22;20000;-55
2024/01/30 00:58:06;;;;;;;10.52;7.53;;;;;;;0.89;67.57;100913.06;6276214;22;20008;-57
2024/01/30 01:00:32;;;;;;;10.48;7.47;;;;;;;0.88;67.93;100905.22;6277880;22;19999;-58
2024/01/30 01:02:59;;;;;;;9.40;6.38;;;;;;;0.76;67.96;100890.53;6277714;22;19999;-60
2024/01/30 01:05:25;;;;;;;12.40;7.82;;;;;;;0.87;68.18;100903.47;6276528;22;20004;-60
2024/01/30 01:07:50;;;;;;;13.07;7.65;;;;;;;0.89;67.90;100897.25;6277856;22;20004;-58
2024/01/30 01:10:19;;;;;;;10.68;7.32;;;;;;;0.91;67.88;100892.81;6277682;22;20409;-56
2024/01/30 01:12:45;;;;;;;12.57;8.13;;;;;;;0.92;68.05;100896.31;6276938;22;20012;-59
2024/01/30 01:15:11;;;;;;;11.25;7.38;;;;;;;0.96;68.00;100896.19;6277009;22;20411;-56
2024/01/30 01:17:38;;;;;;;12.27;7.20;;;;;;;0.97;67.84;100897.94;6277712;22;20006;-57
2024/01/30 01:20:06;;;;;;;9.32;7.20;;;;;;;0.94;67.98;100889.22;6277229;22;20278;-60
2024/01/30 01:22:32;;;;;;;12.00;8.00;;;;;;;0.95;67.93;100883.91;6277063;22;20478;-59
2024/01/30 01:24:58;;;;;;;10.35;7.38;;;;;;;0.93;67.44;100874.31;6277507;22;20008;-58
2024/01/30 01:27:24;;;;;;;9.95;7.18;;;;;;;1.02;67.67;100895.19;6277094;22;20003;-57
2024/01/30 01:29:51;;;;;;;11.88;8.05;;;;;;;0.74;67.44;100842.25;6275947;22;20405;-58
2024/01/30 01:32:16;;;;;;;11.52;8.02;;;;;;;1.01;67.42;100875.00;6277350;22;20483;-57
2024/01/30 01:34:42;;;;;;;11.13;7.60;;;;;;;1.03;67.60;100881.09;6277747;22;19999;-60
2024/01/30 01:37:08;;;;;;;10.32;7.25;;;;;;;1.11;67.57;100883.56;6277427;22;20079;-62
2024/01/30 01:39:33;;;;;;;10.82;7.70;;;;;;;1.08;67.25;100884.47;6277623;22;20004;-59
2024/01/30 01:41:59;;;;;;;11.05;7.32;;;;;;;1.11;67.56;100875.63;6276962;22;20297;-57
2024/01/30 01:44:24;;;;;;;10.25;7.35;;;;;;;1.12;67.51;100874.72;6250674;22;20023;-60
2024/01/30 01:46:51;;;;;;;11.05;8.02;;;;;;;0.79;67.53;100819.28;6277299;22;20021;-60
2024/01/30 01:49:16;;;;;;;14.15;8.02;;;;;;;1.14;67.47;100850.06;6277224;22;20385;-59
2024/01/30 01:51:44;;;;;;;12.88;7.85;;;;;;;1.18;67.12;100856.09;6277573;22;20007;-59
2024/01/30 01:54:10;;;;;;;11.30;7.82;;;;;;;0.95;67.26;100836.44;6276716;22;20004;-60
2024/01/30 01:56:38;;;;;;;11.25;8.15;;;;;;;1.24;66.96;100869.16;6277584;22;20004;-61
2024/01/30 01:59:07;;;;;;;12.00;7.63;;;;;;;1.20;66.96;100867.47;6276371;22;20286;-56
2024/01/30 02:01:33;;;;;;;11.07;7.93;;;;;;;1.16;66.71;100865.84;6277148;22;20079;-58
2024/01/30 02:04:00;;;;;;;12.50;7.43;;;;;;;1.15;67.04;100869.38;6277149;22;20008;-58
2024/01/30 02:06:27;;;;;;;11.75;7.30;;;;;;;0.49;67.46;100740.06;6276010;22;20007;-56
2024/01/30 02:08:53;;;;;;;11.88;8.02;;;;;;;1.18;67.42;100856.09;6276704;22;20018;-57
2024/01/30 02:11:20;;;;;;;11.55;7.97;;;;;;;1.16;66.98;100855.28;6276695;22;20018;-59
2024/01/30 02:13:46;;;;;;;12.30;8.15;;;;;;;1.17;67.15;100872.84;6277164;22;20003;-60
2024/01/30 02:16:12;;;;;;;12.75;7.60;;;;;;;1.04;67.45;100850.31;6277047;22;20099;-55
2024/01/30 02:18:43;;;;;;;13.05;8.45;;;;;;;1.18;67.26;100861.38;6276548;22;20094;-58
2024/01/30 02:21:17;;;;;;;13.10;7.97;;;;;;;1.19;67.21;100872.81;6276676;22;20320;-57
2024/01/30 02:23:46;;;;;;;12.65;7.82;;;;;;;1.14;67.38;100846.53;6277470;22;20049;-58
2024/01/30 02:26:13;;;;;;;11.48;7.70;;;;;;;1.20;67.58;100864.00;6276460;22;20449;-58
2024/01/30 02:28:38;;;;;;;12.18;8.23;;;;;;;1.25;66.84;100864.75;6277147;22;20081;-61
2024/01/30 02:31:04;;;;;;;12.05;8.45;;;;;;;1.24;66.96;100865.66;6276897;22;20003;-57
2024/01/30 02:33:30;;;;;;;13.32;8.52;;;;;;;1.16;66.68;100855.28;6276705;22;20729;-57
2024/01/30 02:35:56;;;;;;;12.18;7.70;;;;;;;1.19;67.28;100852.56;6276251;22;19999;-58
2024/01/30 02:38:21;;;;;;;11.27;7.60;;;;;;;1.19;67.48;100857.00;6276389;22;20078;-60
2024/01/30 02:40:47;;;;;;;11.50;8.18;;;;;;;1.24;67.33;100853.34;6276306;22;20027;-60
2024/01/30 02:43:13;;;;;;;11.82;7.88;;;;;;;1.26;67.41;100859.44;6276326;22;20004;-57
2024/01/30 02:45:39;;;;;;;13.57;8.68;;;;;;;1.17;67.30;100843.81;6276981;22;20397;-61
2024/01/30 02:48:04;;;;;;;10.77;7.90;;;;;;;1.27;67.17;100858.53;6275581;22;20031;-59
2024/01/30 02:50:30;;;;;;;11.05;7.68;;;;;;;1.27;66.92;100847.97;6276580;22;20095;-55
2024/01/30 02:52:56;;;;;;;11.75;8.13;;;;;;;1.28;67.07;100843.56;6276246;22;20011;-57
2024/01/30 02:55:21;;;;;;;12.80;8.45;;;;;;;1.33;66.99;100854.88;6276209;22;20410;-56
2024/01/30 02:57:47;;;;;;;12.63;8.48;;;;;;;0.95;67.07;100799.53;6276795;22;20004;-56
2024/01/30 03:00:13;;;;;;;11.77;7.68;;;;;;;1.26;66.86;100866.47;6276623;22;20055;-58
2024/01/30 03:02:39;;;;;;;14.50;8.48;;;;;;;1.30;67.45;100849.66;6275848;22;20000;-56
2024/01/30 03:05:05;;;;;;;11.43;8.27;;;;;;;1.33;67.26;100861.91;6276549;22;20004;-62
2024/01/30 03:07:31;;;;;;;13.13;8.60;;;;;;;1.31;67.34;100866.38;6276436;22;20010;-60
2024/01/30 03:09:57;;;;;;;13.38;7.93;;;;;;;1.36;67.14;100868.00;6276398;22;20000;-59
2024/01/30 03:12:22;;;;;;;12.43;8.40;;;;;;;1.40;67.42;100879.31;6276502;22;20018;-59
2024/01/30 03:14:49;;;;;;;15.43;9.15;;;;;;;1.25;67.06;100855.06;6276410;22;20004;-59
2024/01/30 03:17:15;;;;;;;12.13;8.10;;;;;;;1.34;67.30;100861.91;6276220;22;20000;-59
2024/01/30 03:19:40;;;;;;;12.07;8.30;;;;;;;1.44;67.00;100883.59;6276703;22;20098;-58
2024/01/30 03:22:06;;;;;;;12.35;7.90;;;;;;;1.39;67.11;100890.78;6276518;22;20274;-57
2024/01/30 03:24:31;;;;;;;12.25;8.13;;;;;;;1.44;66.97;100891.53;6276243;22;20000;-57
2024/01/30 03:26:57;;;;;;;12.50;7.93;;;;;;;1.19;67.00;100844.66;6275993;22;20043;-61
2024/01/30 03:29:22;;;;;;;13.10;7.97;;;;;;;1.48;66.66;100887.94;6275035;22;20010;-57
2024/01/30 03:31:48;;;;;;;12.02;8.65;;;;;;;1.47;67.26;100894.09;6276409;22;20134;-61
2024/01/30 03:34:14;;;;;;;14.10;8.50;;;;;;;1.43;67.03;100876.59;6276273;22;20029;-63
2024/01/30 03:36:39;;;;;;;13.43;8.10;;;;;;;1.47;67.24;100885.31;6275499;22;20003;-59
2024/01/30 03:39:06;;;;;;;11.63;8.13;;;;;;;1.47;67.26;100882.66;6275935;22;20010;-59
2024/01/30 03:41:31;;;;;;;12.18;7.85;;;;;;;1.48;66.98;100874.72;6276401;22;20019;-56
2024/01/30 03:43:57;;;;;;;11.45;7.75;;;;;;;1.47;67.19;100866.84;6275881;22;20109;-58
2024/01/30 03:46:23;;;;;;;17.08;7.72;;;;;;;1.52;67.24;100879.00;6276273;22;20014;-59
2024/01/30 03:48:48;;;;;;;10.52;7.90;;;;;;;1.52;67.18;100892.22;6276104;22;20047;-61
2024/01/30 03:51:15;;;;;;;11.82;8.27;;;;;;;1.59;66.98;100892.94;6276308;22;20149;-57
2024/01/30 03:53:42;;;;;;;11.88;8.20;;;;;;;1.63;66.43;100885.78;6276436;22;20007;-59
2024/01/30 03:56:08;;;;;;;14.52;8.48;;;;;;;1.51;67.24;100892.25;6276030;22;20095;-59
2024/01/30 03:58:33;;;;;;;12.50;8.15;;;;;;;1.43;67.27;100884.50;6275366;22;20389;-58
2024/01/30 04:00:59;;;;;;;12.82;8.20;;;;;;;1.51;67.67;100893.13;6275617;22;20010;-58
2024/01/30 04:03:24;;;;;;;11.82;8.45;;;;;;;1.22;67.58;100846.34;6275406;22;20297;-61
2024/01/30 04:05:52;;;;;;;12.70;8.32;;;;;;;1.62;66.99;100907.81;6275852;22;20007;-60
2024/01/30 04:08:18;;;;;;;11.32;7.95;;;;;;;1.52;67.14;100880.78;6274751;22;20004;-60
2024/01/30 04:10:43;;;;;;;12.57;7.35;;;;;;;1.57;67.33;100898.22;6275150;22;20000;-60
2024/01/30 04:13:09;;;;;;;12.02;7.80;;;;;;;1.57;67.42;100900.03;6274589;22;20010;-59
2024/01/30 04:15:34;;;;;;;12.10;7.70;;;;;;;1.54;67.59;100894.78;6275623;22;20003;-59
2024/01/30 04:18:00;;;;;;;11.13;8.05;;;;;;;1.49;67.46;100884.38;6277190;22;20389;-60
2024/01/30 04:20:26;;;;;;;9.90;7.43;;;;;;;1.59;67.59;100892.94;6278106;22;20031;-60
2024/01/30 04:22:52;;;;;;;12.05;7.82;;;;;;;1.59;67.11;100895.56;6277458;22;20290;-61
2024/01/30 04:25:17;;;;;;;13.30;8.10;;;;;;;1.65;67.38;100894.50;6277895;22;20134;-60
2024/01/30 04:27:44;;;;;;;12.10;7.88;;;;;;;1.69;67.61;100890.91;6277720;22;20324;-61
2024/01/30 04:30:10;;;;;;;12.00;7.68;;;;;;;1.68;67.17;100882.13;6276515;22;19999;-63
2024/01/30 04:32:36;;;;;;;11.40;7.35;;;;;;;1.66;67.19;100877.78;6277550;22;20149;-60
2024/01/30 04:35:03;;;;;;;10.73;7.43;;;;;;;1.79;67.60;100889.75;6277742;22;20083;-60
2024/01/30 04:37:30;;;;;;;11.55;7.18;;;;;;;1.72;67.51;100877.63;6276308;22;20003;-62
2024/01/30 04:39:56;;;;;;;11.55;7.63;;;;;;;1.78;67.91;100890.66;6277849;22;20328;-59
2024/01/30 04:42:23;;;;;;;12.38;7.22;;;;;;;1.54;67.08;100840.25;6276754;22;20450;-63
2024/01/30 04:44:49;;;;;;;15.13;8.55;;;;;;;1.81;67.15;100887.94;6277002;22;20277;-62
2024/01/30 04:47:15;;;;;;;13.35;8.45;;;;;;;1.81;67.44;100887.94;6277772;22;20011;-61
2024/01/30 04:49:40;;;;;;;12.95;8.00;;;;;;;1.83;67.52;100898.47;6277251;22;20052;-62
2024/01/30 04:52:07;;;;;;;12.13;8.13;;;;;;;1.76;67.51;100887.19;6277357;22;20059;-63
2024/01/30 04:54:33;;;;;;;10.90;8.00;;;;;;;1.84;67.45;100901.03;6277597;22;20057;-62
2024/01/30 04:56:58;;;;;;;14.25;8.45;;;;;;;1.80;67.20;100888.84;6276249;22;20000;-61
2024/01/30 04:59:24;;;;;;;14.57;8.50;;;;;;;1.78;67.44;100884.50;6277354;22;19999;-61
2024/01/30 05:01:50;;;;;;;15.35;7.88;;;;;;;1.86;67.83;100888.66;6277067;22;20004;-63
2024/01/30 05:04:15;;;;;;;13.70;8.57;;;;;;;1.77;67.72;100873.09;6277038;22;20007;-59
2024/01/30 05:06:41;;;;;;;13.10;8.93;;;;;;;1.72;66.86;100844.16;6277450;22;20090;-59
2024/01/30 05:09:07;;;;;;;13.85;8.98;;;;;;;1.96;66.88;100873.44;6277111;22;20304;-61
2024/01/30 05:11:40;;;;;;;15.10;8.57;;;;;;;2.02;67.22;100877.69;6276709;22;20035;-63
2024/01/30 05:14:06;;;;;;;13.88;8.35;;;;;;;2.01;66.97;100884.72;6276855;22;20000;-59
2024/01/30 05:16:32;;;;;;;13.20;9.55;;;;;;;1.69;66.87;100824.91;6277423;22;20305;-62
2024/01/30 05:18:58;;;;;;;14.20;9.13;;;;;;;2.03;67.25;100879.41;6276530;22;20377;-59
2024/01/30 05:21:24;;;;;;;14.45;8.82;;;;;;;2.01;66.84;100878.59;6276594;22;20058;-61
2024/01/30 05:23:50;;;;;;;16.75;9.27;;;;;;;1.93;66.94;100883.19;6276824;22;20301;-65
2024/01/30 05:26:15;;;;;;;14.77;8.32;;;;;;;2.03;66.96;100891.75;6276242;22;20332;-59
2024/01/30 05:28:41;;;;;;;15.70;8.52;;;;;;;2.10;66.63;100902.09;6276649;22;19999;-62
2024/01/30 05:31:06;;;;;;;12.48;8.43;;;;;;;2.10;66.99;100912.66;6275709;22;20411;-62
2024/01/30 05:33:32;;;;;;;13.30;8.68;;;;;;;2.09;66.95;100894.25;6277054;22;20318;-58
2024/01/30 05:35:57;;;;;;;12.75;7.97;;;;;;;2.06;66.97;100908.38;6276824;22;20079;-59
2024/01/30 05:38:23;;;;;;;12.73;8.88;;;;;;;1.75;66.60;100853.78;6275504;22;20385;-58
2024/01/30 05:40:49;;;;;;;15.18;8.68;;;;;;;2.08;66.63;100890.72;6277245;22;20004;-56
2024/01/30 05:43:15;;;;;;;15.57;9.13;;;;;;;2.08;66.69;100909.22;6276462;22;20008;-61
2024/01/30 05:45:41;;;;;;;17.63;10.00;;;;;;;2.08;67.07;100897.78;6277049;22;20004;-57
2024/01/30 05:48:06;;;;;;;16.05;8.80;;;;;;;2.08;67.46;100901.28;6276468;22;20097;-62
2024/01/30 05:50:32;;;;;;;13.95;8.88;;;;;;;2.15;67.19;100912.56;6276639;22;20011;-56
2024/01/30 05:52:57;;;;;;;15.02;9.30;;;;;;;1.82;67.35;100863.25;6276361;22;20012;-59
2024/01/30 05:55:23;;;;;;;13.98;9.07;;;;;;;2.14;67.52;100916.94;6275732;22;20061;-62
2024/01/30 05:57:48;;;;;;;14.90;9.80;;;;;;;2.15;67.02;100917.84;6276750;22;20348;-61
2024/01/30 06:00:14;;;;;;;15.48;9.00;;;;;;;2.18;67.26;100924.81;6276338;22;20036;-60
2024/01/30 06:02:40;;;;;;;16.40;9.82;;;;;;;2.24;67.02;100919.34;6275815;22;19995;-58
2024/01/30 06:05:06;;;;;;;18.05;9.48;;;;;;;2.19;66.74;100919.47;6276394;22;20028;-61
2024/01/30 06:07:31;;;;;;;15.07;9.80;;;;;;;2.15;67.58;100909.91;6276608;22;20062;-62
2024/01/30 06:09:57;;;;;;;16.55;9.90;;;;;;;1.98;66.85;100892.75;6276673;22;19996;-61
2024/01/30 06:12:23;;;;;;;13.25;9.18;;;;;;;2.24;67.54;100924.63;6277155;22;20359;-67
2024/01/30 06:14:48;;;;;;;15.95;9.43;;;;;;;2.24;66.96;100919.34;6277061;22;20003;-60
2024/01/30 06:17:14;;;;;;;16.63;9.75;;;;;;;2.21;67.10;100916.81;6276175;22;20038;-62
2024/01/30 06:19:39;;;;;;;16.00;9.90;;;;;;;2.42;66.33;100923.25;6276431;22;20002;-58
2024/01/30 06:22:05;;;;;;;16.35;9.70;;;;;;;2.37;66.56;100923.38;6276670;22;20000;-60
2024/01/30 06:24:30;;;;;;;16.02;10.07;;;;;;;2.09;66.66;100878.38;6276704;22;20000;-63
2024/01/30 06:26:56;;;;;;;16.42;9.70;;;;;;;2.33;67.22;100934.09;6276098;22;20392;-61
2024/01/30 06:29:22;;;;;;;17.58;10.82;;;;;;;2.34;67.49;100936.66;6275491;22;20108;-59
2024/01/30 06:31:47;;;;;;;17.08;10.43;;;;;;;2.35;66.80;100935.75;6275306;22;20377;-61
2024/01/30 06:34:13;;;;;;;15.90;10.80;;;;;;;2.48;66.83;100943.34;6274658;22;20396;-57
2024/01/30 06:36:39;;;;;;;16.27;10.80;;;;;;;2.44;67.14;100954.03;6275869;22;20360;-60
2024/01/30 06:39:05;;;;;;;17.70;10.90;;;;;;;2.53;67.38;100942.31;6276013;22;20004;-59
2024/01/30 06:41:31;;;;;;;16.67;10.68;;;;;;;2.49;67.29;100934.50;6275720;22;20078;-57
2024/01/30 06:43:57;;;;;;;24.00;11.45;;;;;;;2.61;66.67;100944.72;6275787;22;20133;-59
2024/01/30 06:46:22;;;;;;;16.23;10.02;;;;;;;2.59;67.69;100941.25;6275269;22;20489;-61
2024/01/30 06:48:48;;;;;;;20.30;11.27;;;;;;;2.46;67.51;100908.16;6275501;22;19999;-57
2024/01/30 06:51:14;;;;;;;17.58;10.95;;;;;;;2.69;66.93;100944.50;6274731;22;20035;-60
2024/01/30 06:53:39;;;;;;;17.40;10.60;;;;;;;2.57;66.71;100929.84;6275231;22;20011;-54
2024/01/30 06:56:05;;;;;;;19.15;11.30;;;;;;;2.70;67.00;100947.09;6275926;22;20007;-61
2024/01/30 06:58:32;;;;;;;17.65;11.18;;;;;;;2.71;66.95;100946.19;6274858;22;20389;-60
2024/01/30 07:00:58;;;;;;;19.95;11.13;;;;;;;2.78;66.74;100946.00;6275746;22;20098;-59
2024/01/30 07:03:23;;;;;;;20.65;10.98;;;;;;;2.63;66.58;100920.88;6276764;22;19999;-55
2024/01/30 07:05:49;;;;;;;18.73;11.25;;;;;;;2.70;66.80;100944.47;6275502;22;20086;-61
2024/01/30 07:08:19;;;;;;;16.90;11.35;;;;;;;2.75;66.53;100954.88;6275459;22;20005;-55
2024/01/30 07:10:44;;;;;;;18.48;10.80;;;;;;;2.80;66.97;100955.63;6276036;22;20107;-63
2024/01/30 07:13:11;;;;;;;28.42;11.85;;;;;;;2.80;67.18;100962.69;6275530;22;20035;-63
2024/01/30 07:15:36;;;;;;;19.38;11.10;;;;;;;2.83;67.15;100965.22;6274365;22;20098;-64
2024/01/30 07:18:04;;;;;;;18.75;11.80;;;;;;;2.81;67.06;100961.75;6273676;22;20035;-65
2024/01/30 07:20:31;;;;;;;18.73;11.15;;;;;;;2.90;66.95;100976.50;6274968;22;20004;-62
2024/01/30 07:22:58;;;;;;;18.63;11.43;;;;;;;2.87;66.36;100967.75;6272511;22;20011;-67
2024/01/30 07:25:27;;;;;;;21.52;11.75;;;;;;;2.93;67.32;100964.06;6269969;22;20362;-62
2024/01/30 07:27:53;;;;;;;18.73;11.30;;;;;;;3.04;67.14;100969.03;6272166;22;20347;-66
2024/01/30 07:30:20;;;;;;;19.77;11.63;;;;;;;2.85;66.40;100921.09;6248578;22;20290;-65
2024/01/30 07:32:46;;;;;;;19.00;11.50;;;;;;;2.88;66.39;100923.63;6273977;22;20057;-70
2024/01/30 07:35:12;;;;;;;16.88;11.52;;;;;;;3.19;65.44;100969.44;6273251;22;20019;-64
2024/01/30 07:37:38;;;;;;;20.25;11.70;;;;;;;3.14;66.43;100974.91;6274520;22;20000;-63
2024/01/30 07:40:04;;;;;;;23.23;12.27;;;;;;;3.12;66.51;100984.63;6275522;22;20097;-65
2024/01/30 07:42:30;;;;;;;18.98;11.57;;;;;;;3.05;66.38;100983.09;6275088;22;20007;-64
2024/01/30 07:44:56;;;;;;;18.83;11.57;;;;;;;3.00;66.96;100994.69;6274008;22;20404;-65
2024/01/30 07:47:21;;;;;;;19.20;11.35;;;;;;;2.71;66.08;100929.44;6248667;22;20010;-63
2024/01/30 07:49:47;;;;;;;22.88;12.52;;;;;;;3.03;66.61;100987.56;6275875;22;20098;-63
2024/01/30 07:52:13;;;;;;;17.50;11.00;;;;;;;3.03;66.23;100971.69;6270882;22;20022;-58
2024/01/30 07:54:38;;;;;;;21.35;11.80;;;;;;;2.73;66.54;100933.78;6269762;22;19995;-52
2024/01/30 07:57:04;;;;;;;21.73;12.02;;;;;;;2.97;66.93;100963.03;6274630;22;20086;-51
2024/01/30 07:59:30;;;;;;;20.35;11.90;;;;;;;3.11;66.46;100969.66;6275402;22;20014;-52
2024/01/30 08:01:55;;;;;;;18.85;11.55;;;;;;;3.05;65.96;100976.03;6274935;22;20099;-52
2024/01/30 08:04:21;;;;;;;17.80;11.57;;;;;;;3.11;66.50;100969.66;6273827;22;20087;-53
2024/01/30 08:06:46;;;;;;;20.75;11.98;;;;;;;3.22;67.60;100977.28;6273948;22;20152;-55
2024/01/30 08:09:12;;;;;;;21.98;12.00;;;;;;;3.15;66.96;100963.41;6272980;22;20385;-54
2024/01/30 08:11:37;;;;;;;23.20;12.50;;;;;;;3.33;66.85;100974.28;6272367;22;20385;-57
2024/01/30 08:14:03;;;;;;;22.27;12.85;;;;;;;3.36;66.71;100963.59;6273438;22;20011;-59
2024/01/30 08:16:29;;;;;;;22.95;11.77;;;;;;;3.05;66.44;100915.19;6274179;22;20079;-57
2024/01/30 08:18:57;;;;;;;22.92;12.65;;;;;;;3.26;67.35;100955.13;6275379;22;20012;-52
2024/01/30 08:21:22;;;;;;;24.25;12.55;;;;;;;3.33;66.77;100971.66;6272667;22;20289;-57
2024/01/30 08:23:48;;;;;;;19.50;11.77;;;;;;;3.29;66.59;100974.41;6273477;22;19996;-58
2024/01/30 08:26:14;;;;;;;20.65;12.57;;;;;;;3.29;66.58;100969.09;6273713;22;20301;-57
2024/01/30 08:28:39;;;;;;;22.15;12.35;;;;;;;3.06;67.44;100945.13;6273401;22;20409;-54
2024/01/30 08:31:05;;;;;;;23.90;12.85;;;;;;;3.31;66.80;100971.72;6273540;22;20048;-56
2024/01/30 08:33:30;;;;;;;26.73;13.40;;;;;;;3.04;67.04;100936.38;6272799;22;20011;-56
2024/01/30 08:35:56;;;;;;;21.13;11.90;;;;;;;3.25;68.00;100971.88;6273238;22;20067;-58
2024/01/30 08:38:21;;;;;;;18.88;11.95;;;;;;;3.26;67.89;100973.66;6273748;22;20000;-59
2024/01/30 08:40:47;;;;;;;21.23;12.77;;;;;;;3.22;67.83;100958.75;6273623;22;20007;-55
2024/01/30 08:43:13;;;;;;;19.40;12.20;;;;;;;3.27;67.04;100970.94;6274194;22;20225;-53
2024/01/30 08:45:38;;;;;;;20.83;12.13;;;;;;;3.14;68.52;100951.94;6274108;22;20012;-54
2024/01/30 08:48:04;;;;;;;20.20;11.73;;;;;;;3.27;67.52;100970.94;6274351;22;20003;-56
2024/01/30 08:50:30;;;;;;;20.38;11.52;;;;;;;3.26;66.79;100963.06;6274219;22;20007;-56
2024/01/30 08:52:56;;;;;;;20.83;11.70;;;;;;;3.21;67.71;100965.84;6274309;22;20012;-55
2024/01/30 08:55:22;;;;;;;20.73;12.45;;;;;;;3.22;67.59;100978.16;6273817;22;20384;-53
2024/01/30 08:57:48;;;;;;;22.38;12.00;;;;;;;3.13;67.66;100963.44;6274368;22;20057;-54
2024/01/30 09:00:14;;;;;;;26.05;12.52;;;;;;;3.18;68.09;100973.88;6273947;22;20011;-53
2024/01/30 09:02:40;;;;;;;22.55;13.32;;;;;;;3.17;68.50;100974.78;6274159;22;20000;-58
2024/01/30 09:05:05;;;;;;;22.75;11.93;;;;;;;3.09;67.68;100947.69;6275281;22;20423;-57
2024/01/30 09:07:31;;;;;;;18.77;10.95;;;;;;;2.90;66.76;100929.75;6276584;22;20007;-58
2024/01/30 09:09:57;;;;;;;19.33;12.13;;;;;;;3.13;67.51;100967.84;6273444;22;20048;-54
2024/01/30 09:12:22;;;;;;;22.60;12.57;;;;;;;3.17;67.85;100974.78;6275377;22;20004;-55
2024/01/30 09:14:48;;;;;;;19.85;11.95;;;;;;;3.20;67.49;100973.81;6275024;22;20011;-57
2024/01/30 09:17:13;;;;;;;21.33;12.88;;;;;;;3.21;67.48;100976.44;6276102;22;20014;-59
2024/01/30 09:19:40;;;;;;;19.20;11.32;;;;;;;3.28;68.46;100974.47;6276360;22;20031;-54
2024/01/30 09:22:06;;;;;;;22.42;11.90;;;;;;;2.93;66.86;100923.50;6276093;22;20040;-57
2024/01/30 09:24:31;;;;;;;20.70;11.40;;;;;;;3.32;67.22;100969.91;6275528;22;20015;-57
2024/01/30 09:26:57;;;;;;;19.60;12.60;;;;;;;3.19;68.16;100945.63;6276435;22;20288;-60
2024/01/30 09:29:22;;;;;;;24.25;12.30;;;;;;;3.49;67.76;100970.25;6276530;22;20026;-59
2024/01/30 09:31:48;;;;;;;21.63;12.07;;;;;;;3.28;66.76;100925.03;6275929;22;20057;-58
2024/01/30 09:34:14;;;;;;;23.90;11.98;;;;;;;3.69;66.87;100974.03;6276022;22;20012;-61
2024/01/30 09:36:39;;;;;;;18.65;11.52;;;;;;;3.84;67.09;100970.84;6275776;22;20289;-57
2024/01/30 09:39:06;;;;;;;19.98;11.82;;;;;;;3.89;65.73;100962.75;6275617;22;20087;-57
2024/01/30 09:41:51;;;;;;;20.05;11.43;;;;;;;4.06;65.44;100972.75;6275680;22;20018;-57
2024/01/30 09:44:18;;;;;;;19.33;12.23;;;;;;;4.01;65.61;100959.69;6275567;22;20015;-54
2024/01/30 09:46:47;;;;;;;19.88;12.60;;;;;;;4.14;65.83;100960.09;6275733;22;20012;-58
2024/01/30 09:49:14;;;;;;;18.55;11.30;;;;;;;4.14;65.29;100962.75;6275141;22;20356;-58
2024/01/30 09:51:39;;;;;;;22.30;10.85;;;;;;;4.22;65.76;100964.25;6275222;22;20057;-60
2024/01/30 09:54:09;;;;;;;18.65;11.55;;;;;;;4.13;66.31;100949.53;6275075;22;20003;-57
2024/01/30 09:56:35;;;;;;;17.85;12.00;;;;;;;4.09;65.70;100950.59;6275474;22;19999;-57
2024/01/30 09:59:00;;;;;;;16.80;11.68;;;;;;;4.15;65.42;100948.59;6274747;22;20003;-57
2024/01/30 10:01:26;;;;;;;18.50;11.27;;;;;;;4.20;66.43;100952.84;6275119;22;20099;-58
2024/01/30 10:03:53;;;;;;;21.38;12.23;;;;;;;4.21;65.34;100957.22;6273371;22;20000;-61
2024/01/30 10:06:20;;;;;;;17.83;11.63;;;;;;;4.24;65.35;100958.00;6274839;22;20000;-59
2024/01/30 10:08:46;;;;;;;20.25;12.32;;;;;;;4.21;66.35;100950.13;6274923;22;20003;-58
2024/01/30 10:11:12;;;;;;;20.75;12.60;;;;;;;4.19;65.94;100959.06;6274126;22;20102;-58
2024/01/30 10:13:39;;;;;;;19.70;12.48;;;;;;;4.18;64.92;100952.03;6275374;22;20034;-56
2024/01/30 10:16:06;;;;;;;19.45;12.27;;;;;;;4.17;65.91;100956.47;6273391;22;19999;-59
2024/01/30 10:18:32;;;;;;;24.83;12.90;;;;;;;4.14;66.21;100964.53;6274474;22;20000;-56
2024/01/30 10:20:59;;;;;;;18.90;12.15;;;;;;;4.07;66.43;100963.88;6275239;22;20000;-60
2024/01/30 10:23:25;;;;;;;20.35;12.30;;;;;;;3.96;66.85;100971.34;6274336;22;20065;-56
2024/01/30 10:25:51;;;;;;;20.80;11.95;;;;;;;3.66;67.16;100918.50;6274039;22;20397;-55
2024/01/30 10:28:17;;;;;;;23.58;12.38;;;;;;;3.87;65.62;100964.56;6275518;22;20038;-57
2024/01/30 10:30:42;;;;;;;21.02;11.18;;;;;;;3.79;66.61;100963.97;6275150;22;20293;-55
2024/01/30 10:33:08;;;;;;;17.13;11.80;;;;;;;3.70;67.00;100951.91;6275125;22;20039;-58
2024/01/30 10:35:33;;;;;;;24.08;12.68;;;;;;;3.72;67.21;100953.56;6275394;22;20016;-59
2024/01/30 10:37:59;;;;;;;24.75;12.43;;;;;;;3.70;66.73;100966.00;6275453;22;20381;-59
2024/01/30 10:40:28;;;;;;;20.98;12.68;;;;;;;3.74;67.71;100961.47;6275156;22;20038;-56
2024/01/30 10:42:55;;;;;;;19.27;12.27;;;;;;;3.69;66.72;100968.72;6274987;22;20012;-59
2024/01/30 10:45:22;;;;;;;25.60;12.68;;;;;;;3.69;67.35;100955.47;6274361;22;20004;-59
2024/01/30 10:47:54;;;;;;;19.98;12.50;;;;;;;3.68;67.57;100953.75;6275667;22;20008;-60
2024/01/30 10:50:20;;;;;;;19.70;12.48;;;;;;;3.69;66.74;100958.13;6275535;22;20004;-56
2024/01/30 10:52:47;;;;;;;22.77;11.82;;;;;;;3.71;66.59;100954.50;6275319;22;20062;-59
2024/01/30 10:55:15;;;;;;;22.73;12.93;;;;;;;3.84;66.95;100962.88;6274486;22;20007;-52
2024/01/30 10:57:41;;;;;;;22.35;11.85;;;;;;;4.00;66.83;100955.31;6274784;22;20086;-54
2024/01/30 11:00:10;;;;;;;21.08;12.40;;;;;;;4.20;66.04;100951.06;6273426;22;20050;-53
2024/01/30 11:02:41;;;;;;;17.95;11.23;;;;;;;4.48;65.20;100957.16;6274120;22;20077;-61
2024/01/30 11:05:08;;;;;;;20.67;12.10;;;;;;;4.38;65.00;100912.41;6273300;22;20405;-62
2024/01/30 11:07:34;;;;;;;21.15;11.75;;;;;;;4.62;64.32;100956.63;6273613;22;20006;-62
2024/01/30 11:10:02;;;;;;;21.98;12.73;;;;;;;4.55;64.36;100958.63;6271903;22;19999;-61
2024/01/30 11:12:35;;;;;;;17.25;11.30;;;;;;;4.53;65.24;100944.56;6273474;22;20014;-57
2024/01/30 11:15:10;;;;;;;21.00;12.05;;;;;;;4.59;65.67;100953.16;6271104;22;20000;-60
2024/01/30 11:17:47;;;;;;;21.17;11.90;;;;;;;4.60;64.57;100964.66;6275079;22;20004;-59